createdAt,value
2018-01-27T00:01:09.392Z,24.83
2018-01-27T00:03:37.654Z,27.00
2018-01-27T00:06:05.268Z,25.03
2018-01-27T00:08:32.781Z,22.63
2018-01-27T00:11:01.055Z,21.93
2018-01-27T00:13:28.676Z,23.67
2018-01-27T00:15:56.164Z,42.40
2018-01-27T00:18:23.822Z,31.23
2018-01-27T00:20:51.314Z,23.20
2018-01-27T00:23:19.718Z,24.93
2018-01-27T00:25:47.288Z,25.33
2018-01-27T00:28:14.772Z,25.60
2018-01-27T00:30:42.274Z,26.40
2018-01-27T00:33:10.543Z,26.53
2018-01-27T00:35:38.809Z,28.17
2018-01-27T00:38:06.414Z,28.03
2018-01-27T00:40:33.909Z,29.07
2018-01-27T00:43:01.422Z,28.40
2018-01-27T00:45:28.959Z,28.97
2018-01-27T00:47:56.475Z,30.00
2018-01-27T00:50:23.958Z,29.70
2018-01-27T00:52:51.453Z,28.57
2018-01-27T00:55:19.002Z,27.77
2018-01-27T00:57:46.487Z,31.27
2018-01-27T01:00:13.992Z,31.73
2018-01-27T01:02:41.490Z,29.77
2018-01-27T01:05:09.023Z,30.33
2018-01-27T01:07:37.294Z,29.80
2018-01-27T01:10:05.585Z,30.77
2018-01-27T01:12:33.134Z,31.30
2018-01-27T01:15:01.395Z,34.07
2018-01-27T01:17:29.682Z,32.17
2018-01-27T01:19:57.943Z,35.00
2018-01-27T01:22:25.519Z,33.50
2018-01-27T01:24:53.812Z,32.07
2018-01-27T01:27:21.319Z,31.67
2018-01-27T01:29:48.803Z,27.37
2018-01-27T01:32:16.311Z,29.67
2018-01-27T01:34:43.827Z,30.70
2018-01-27T01:37:12.095Z,27.50
2018-01-27T01:39:40.362Z,29.00
2018-01-27T01:42:07.867Z,29.63
2018-01-27T01:44:35.418Z,25.77
2018-01-27T01:47:02.920Z,26.03
2018-01-27T01:49:30.401Z,27.17
2018-01-27T01:51:58.787Z,25.77
2018-01-27T01:54:26.269Z,26.93
2018-01-27T01:56:53.768Z,25.63
2018-01-27T01:59:21.274Z,27.30
2018-01-27T02:01:48.836Z,26.50
2018-01-27T02:04:16.391Z,25.67
2018-01-27T02:06:44.655Z,24.63
2018-01-27T02:09:12.164Z,23.90
2018-01-27T02:11:39.650Z,24.90
2018-01-27T02:14:07.159Z,26.43
2018-01-27T02:16:34.753Z,25.60
2018-01-27T02:19:02.213Z,27.77
2018-01-27T02:21:29.703Z,24.10
2018-01-27T02:23:57.193Z,27.43
2018-01-27T02:26:24.739Z,24.33
2018-01-27T02:28:52.300Z,31.80
2018-01-27T02:31:20.587Z,30.87
2018-01-27T02:33:48.078Z,26.67
2018-01-27T02:36:15.598Z,27.03
2018-01-27T02:38:43.864Z,27.37
2018-01-27T02:41:12.124Z,27.07
2018-01-27T02:43:39.676Z,28.33
2018-01-27T02:46:07.190Z,26.57
2018-01-27T02:48:34.698Z,25.87
2018-01-27T02:51:02.185Z,27.00
2018-01-27T02:53:30.470Z,24.40
2018-01-27T02:55:57.951Z,25.27
2018-01-27T02:58:25.433Z,23.20
2018-01-27T03:00:53.033Z,27.03
2018-01-27T03:03:21.284Z,27.10
2018-01-27T03:05:48.779Z,31.37
2018-01-27T03:08:16.279Z,26.70
2018-01-27T03:10:43.785Z,26.17
2018-01-27T03:13:12.043Z,30.37
2018-01-27T03:15:40.321Z,28.97
2018-01-27T03:18:08.582Z,28.13
2018-01-27T03:20:36.181Z,32.10
2018-01-27T03:23:04.431Z,28.60
2018-01-27T03:25:31.991Z,30.70
2018-01-27T03:28:00.251Z,30.37
2018-01-27T03:30:27.851Z,30.70
2018-01-27T03:32:55.360Z,33.20
2018-01-27T03:35:22.848Z,32.53
2018-01-27T03:37:51.115Z,26.93
2018-01-27T03:40:18.599Z,29.87
2018-01-27T03:42:46.872Z,28.50
2018-01-27T03:45:15.126Z,30.93
2018-01-27T03:47:42.704Z,32.03
2018-01-27T03:50:10.950Z,32.67
2018-01-27T03:52:38.435Z,31.90
2018-01-27T03:55:06.691Z,31.17
2018-01-27T03:57:34.201Z,31.90
2018-01-27T04:00:01.690Z,28.53
2018-01-27T04:02:29.186Z,30.47
2018-01-27T04:04:57.466Z,30.53
2018-01-27T04:07:25.714Z,31.20
2018-01-27T04:09:53.222Z,31.00
2018-01-27T04:12:20.703Z,29.93
2018-01-27T04:14:48.227Z,32.13
2018-01-27T04:17:16.489Z,28.53
2018-01-27T04:19:44.743Z,34.13
2018-01-27T04:22:12.341Z,31.73
2018-01-27T04:24:40.582Z,28.30
2018-01-27T04:27:08.180Z,31.53
2018-01-27T04:29:35.675Z,31.83
2018-01-27T04:32:03.173Z,34.07
2018-01-27T04:34:31.723Z,34.20
2018-01-27T04:36:59.216Z,34.67
2018-01-27T04:39:26.720Z,33.33
2018-01-27T04:41:54.235Z,32.57
2018-01-27T04:44:21.723Z,36.83
2018-01-27T04:46:49.223Z,36.70
2018-01-27T04:49:16.828Z,37.40
2018-01-27T04:51:45.070Z,32.27
2018-01-27T04:54:12.571Z,32.63
2018-01-27T04:56:40.079Z,38.67
2018-01-27T04:59:07.678Z,37.80
2018-01-27T05:01:35.963Z,37.90
2018-01-27T05:04:03.533Z,37.93
2018-01-27T05:06:31.086Z,42.27
2018-01-27T05:08:58.637Z,43.23
2018-01-27T05:11:26.917Z,40.20
2018-01-27T05:13:54.399Z,43.70
2018-01-27T05:16:21.927Z,39.47
2018-01-27T05:18:50.191Z,36.73
2018-01-27T05:21:18.470Z,42.70
2018-01-27T05:23:47.526Z,42.83
2018-01-27T05:26:15.069Z,38.23
2018-01-27T05:28:42.716Z,41.90
2018-01-27T05:31:10.203Z,43.83
2018-01-27T05:33:37.715Z,45.07
2018-01-27T05:36:05.995Z,41.23
2018-01-27T05:38:34.292Z,43.30
2018-01-27T05:41:01.779Z,44.93
2018-01-27T05:43:29.263Z,47.23
2018-01-27T05:45:56.803Z,42.70
2018-01-27T05:48:24.299Z,38.83
2018-01-27T05:50:52.581Z,45.97
2018-01-27T05:53:20.104Z,42.03
2018-01-27T05:55:47.577Z,43.83
2018-01-27T05:58:15.093Z,43.43
2018-01-27T06:00:42.625Z,44.60
2018-01-27T06:03:10.127Z,46.70
2018-01-27T06:05:37.760Z,44.80
2018-01-27T06:08:05.238Z,49.80
2018-01-27T06:10:32.855Z,49.00
2018-01-27T06:13:00.349Z,46.03
2018-01-27T06:15:27.851Z,49.63
2018-01-27T06:17:56.118Z,48.97
2018-01-27T06:20:23.605Z,50.73
2018-01-27T06:22:51.175Z,53.03
2018-01-27T06:25:18.662Z,51.77
2018-01-27T06:27:46.150Z,46.50
2018-01-27T06:30:13.639Z,44.97
2018-01-27T06:32:41.920Z,44.93
2018-01-27T06:35:09.416Z,47.00
2018-01-27T06:37:36.900Z,47.93
2018-01-27T06:40:04.383Z,45.53
2018-01-27T06:42:32.653Z,48.20
2018-01-27T06:45:00.912Z,48.33
2018-01-27T06:47:28.464Z,47.77
2018-01-27T06:49:56.058Z,49.30
2018-01-27T06:52:24.489Z,51.67
2018-01-27T06:54:52.762Z,52.57
2018-01-27T06:57:20.255Z,49.17
2018-01-27T06:59:47.834Z,52.93
2018-01-27T07:02:16.083Z,54.47
2018-01-27T07:04:43.559Z,51.57
2018-01-27T07:07:11.827Z,56.50
2018-01-27T07:09:39.335Z,55.43
2018-01-27T07:12:06.840Z,59.30
2018-01-27T07:14:35.127Z,59.03
2018-01-27T07:17:03.403Z,57.03
2018-01-27T07:19:31.671Z,55.33
2018-01-27T07:21:59.175Z,57.03
2018-01-27T07:24:26.695Z,60.47
2018-01-27T07:26:55.009Z,55.37
2018-01-27T07:29:22.521Z,63.37
2018-01-27T07:31:50.103Z,57.33
2018-01-27T07:34:18.356Z,58.47
2018-01-27T07:36:45.866Z,52.70
2018-01-27T07:39:13.352Z,57.40
2018-01-27T07:41:40.840Z,52.27
2018-01-27T07:44:08.447Z,54.23
2018-01-27T07:46:35.927Z,53.10
2018-01-27T07:49:03.453Z,54.13
2018-01-27T07:51:30.944Z,55.73
2018-01-27T07:53:58.445Z,61.07
2018-01-27T07:56:25.961Z,58.53
2018-01-27T07:58:53.447Z,55.67
2018-01-27T08:01:22.059Z,56.77
2018-01-27T08:03:49.544Z,59.50
2018-01-27T08:06:17.040Z,59.57
2018-01-27T08:08:44.537Z,54.77
2018-01-27T08:11:12.028Z,60.33
2018-01-27T08:13:39.526Z,59.03
2018-01-27T08:16:07.007Z,58.70
2018-01-27T08:18:34.584Z,55.33
2018-01-27T08:21:02.125Z,58.90
2018-01-27T08:23:29.629Z,64.33
2018-01-27T08:25:57.128Z,58.20
2018-01-27T08:28:25.382Z,54.90
2018-01-27T08:30:52.862Z,54.00
2018-01-27T08:33:21.137Z,55.30
2018-01-27T08:35:49.408Z,63.67
2018-01-27T08:38:17.717Z,61.97
2018-01-27T08:40:45.273Z,57.63
2018-01-27T08:43:12.768Z,59.57
2018-01-27T08:45:40.274Z,58.03
2018-01-27T08:48:08.530Z,59.67
2018-01-27T08:50:36.019Z,52.93
2018-01-27T08:53:03.540Z,57.83
2018-01-27T08:55:31.031Z,60.50
2018-01-27T08:57:58.570Z,71.27
2018-01-27T09:00:26.831Z,61.50
2018-01-27T09:02:54.314Z,55.80
2018-01-27T09:05:22.585Z,60.93
2018-01-27T09:07:50.857Z,57.83
2018-01-27T09:10:19.155Z,62.10
2018-01-27T09:12:46.714Z,57.20
2018-01-27T09:15:14.206Z,61.60
2018-01-27T09:17:41.758Z,59.80
2018-01-27T09:20:09.306Z,50.90
2018-01-27T09:22:36.855Z,52.93
2018-01-27T09:25:04.349Z,55.27
2018-01-27T09:27:31.838Z,51.93
2018-01-27T09:29:59.322Z,50.37
2018-01-27T09:32:27.007Z,51.63
2018-01-27T09:34:54.532Z,50.57
2018-01-27T09:37:22.072Z,49.03
2018-01-27T09:39:51.062Z,51.73
2018-01-27T09:42:18.566Z,50.50
2018-01-27T09:44:46.119Z,46.80
2018-01-27T09:47:13.622Z,44.37
2018-01-27T09:49:41.160Z,47.63
2018-01-27T09:52:08.631Z,42.27
2018-01-27T09:54:36.153Z,46.00
2018-01-27T09:57:03.606Z,42.83
2018-01-27T09:59:31.126Z,42.50
2018-01-27T10:01:58.598Z,43.77
2018-01-27T10:04:26.086Z,39.57
2018-01-27T10:06:53.600Z,39.80
2018-01-27T10:09:21.083Z,37.97
2018-01-27T10:11:48.683Z,38.90
2018-01-27T10:14:16.180Z,40.33
2018-01-27T10:16:43.706Z,47.10
2018-01-27T10:19:11.319Z,36.83
2018-01-27T10:21:39.589Z,35.87
2018-01-27T10:24:07.878Z,39.30
2018-01-27T10:26:36.402Z,37.23
2018-01-27T10:29:04.005Z,38.63
2018-01-27T10:31:31.482Z,33.90
2018-01-27T10:33:59.742Z,38.57
2018-01-27T10:36:28.027Z,36.23
2018-01-27T10:38:56.311Z,36.57
2018-01-27T10:41:24.593Z,31.97
2018-01-27T10:43:52.855Z,32.73
2018-01-27T10:46:21.115Z,37.10
2018-01-27T10:48:49.402Z,34.70
2018-01-27T10:51:17.647Z,34.27
2018-01-27T10:53:45.202Z,38.80
2018-01-27T10:56:12.805Z,33.90
2018-01-27T10:58:41.055Z,40.30
2018-01-27T11:01:08.538Z,36.67
2018-01-27T11:03:36.823Z,33.83
2018-01-27T11:06:05.130Z,34.33
2018-01-27T11:08:32.651Z,37.70
2018-01-27T11:11:00.911Z,31.43
2018-01-27T11:13:30.145Z,34.23
2018-01-27T11:15:58.394Z,38.77
2018-01-27T11:18:25.879Z,33.47
2018-01-27T11:20:53.423Z,32.03
2018-01-27T11:23:21.674Z,31.33
2018-01-27T11:25:50.694Z,30.20
2018-01-27T11:28:18.950Z,29.70
2018-01-27T11:30:46.455Z,30.43
2018-01-27T11:33:14.134Z,29.33
2018-01-27T11:35:41.764Z,30.13
2018-01-27T11:38:09.588Z,30.27
2018-01-27T11:40:37.085Z,31.87
2018-01-27T11:43:05.342Z,28.77
2018-01-27T11:45:33.634Z,30.13
2018-01-27T11:48:01.897Z,27.60
2018-01-27T11:50:29.453Z,25.23
2018-01-27T11:52:56.946Z,26.90
2018-01-27T11:55:24.453Z,25.63
2018-01-27T11:57:52.039Z,25.90
2018-01-27T12:00:21.260Z,28.97
2018-01-27T12:02:48.821Z,28.20
2018-01-27T12:05:16.312Z,26.07
2018-01-27T12:07:43.804Z,24.77
2018-01-27T12:10:11.339Z,25.97
2018-01-27T12:12:38.837Z,25.20
2018-01-27T12:15:06.370Z,25.30
2018-01-27T12:17:33.868Z,26.73
2018-01-27T12:20:01.372Z,25.37
2018-01-27T12:22:28.886Z,25.17
2018-01-27T12:24:56.405Z,24.10
2018-01-27T12:27:23.914Z,27.30
2018-01-27T12:29:51.455Z,25.50
2018-01-27T12:32:19.735Z,25.50
2018-01-27T12:34:48.001Z,23.90
2018-01-27T12:37:16.258Z,24.00
2018-01-27T12:39:43.768Z,21.67
2018-01-27T12:42:11.283Z,17.30
2018-01-27T12:44:39.535Z,11.03
2018-01-27T12:47:07.135Z,12.27
2018-01-27T12:49:35.414Z,14.70
2018-01-27T12:52:03.673Z,13.83
2018-01-27T12:54:31.965Z,11.40
2018-01-27T12:57:00.206Z,15.57
2018-01-27T12:59:27.698Z,13.13
2018-01-27T13:01:56.590Z,12.90
2018-01-27T13:04:24.872Z,11.90
2018-01-27T13:06:53.146Z,10.60
2018-01-27T13:09:21.726Z,12.80
2018-01-27T13:11:49.991Z,13.53
2018-01-27T13:14:18.356Z,12.50
2018-01-27T13:16:45.874Z,11.50
2018-01-27T13:19:13.358Z,12.80
2018-01-27T13:21:41.016Z,11.43
2018-01-27T13:24:08.526Z,12.40
2018-01-27T13:26:36.013Z,13.97
2018-01-27T13:29:03.614Z,11.87
2018-01-27T13:31:31.193Z,16.97
2018-01-27T13:33:59.710Z,18.13
2018-01-27T13:36:27.205Z,15.90
2018-01-27T13:38:54.711Z,15.43
2018-01-27T13:41:22.428Z,15.40
2018-01-27T13:43:50.022Z,17.30
2018-01-27T13:46:18.375Z,17.93
2018-01-27T13:48:45.902Z,14.73
2018-01-27T13:51:13.529Z,13.70
2018-01-27T13:53:41.043Z,17.93
2018-01-27T13:56:08.546Z,18.80
2018-01-27T13:58:36.023Z,16.57
2018-01-27T14:01:03.565Z,17.50
2018-01-27T14:03:31.059Z,17.57
2018-01-27T14:05:59.323Z,18.50
2018-01-27T14:08:27.177Z,18.63
2018-01-27T14:10:54.677Z,19.47
2018-01-27T14:13:22.287Z,19.37
2018-01-27T14:15:49.946Z,18.93
2018-01-27T14:18:17.482Z,19.17
2018-01-27T14:20:44.974Z,17.80
2018-01-27T14:23:12.601Z,20.27
2018-01-27T14:25:40.862Z,20.33
2018-01-27T14:28:08.359Z,20.07
2018-01-27T14:30:35.946Z,20.37
2018-01-27T14:33:03.438Z,22.57
2018-01-27T14:35:30.939Z,21.20
2018-01-27T14:37:58.509Z,19.90
2018-01-27T14:40:26.019Z,20.97
2018-01-27T14:42:53.588Z,18.97
2018-01-27T14:45:21.861Z,19.67
2018-01-27T14:47:49.501Z,20.90
2018-01-27T14:50:16.990Z,22.43
2018-01-27T14:52:45.403Z,21.60
2018-01-27T14:55:12.953Z,19.63
2018-01-27T14:57:40.457Z,23.93
2018-01-27T15:00:07.937Z,19.80
2018-01-27T15:02:35.450Z,21.53
2018-01-27T15:05:03.027Z,22.27
2018-01-27T15:07:30.526Z,22.43
2018-01-27T15:09:58.787Z,25.07
2018-01-27T15:12:26.258Z,22.37
2018-01-27T15:14:54.520Z,23.00
2018-01-27T15:17:22.026Z,25.07
2018-01-27T15:19:49.548Z,22.33
2018-01-27T15:22:17.848Z,26.40
2018-01-27T15:24:45.407Z,22.60
2018-01-27T15:27:12.971Z,24.13
2018-01-27T15:32:16.867Z,20.83
2018-01-27T15:34:45.190Z,20.50
2018-01-27T15:37:12.709Z,21.47
2018-01-27T15:39:40.984Z,22.30
2018-01-27T15:42:09.246Z,22.50
2018-01-27T15:44:36.787Z,22.10
2018-01-27T15:47:04.260Z,24.70
2018-01-27T15:49:31.734Z,25.43
2018-01-27T15:52:00.087Z,23.83
2018-01-27T15:54:27.652Z,29.67
2018-01-27T15:56:55.163Z,24.40
2018-01-27T15:59:22.654Z,24.47
2018-01-27T16:01:50.161Z,23.87
2018-01-27T16:04:17.673Z,24.97
2018-01-27T16:06:45.187Z,28.07
2018-01-27T16:09:12.738Z,25.30
2018-01-27T16:11:40.271Z,31.47
2018-01-27T16:14:07.826Z,21.73
2018-01-27T16:16:35.314Z,27.03
2018-01-27T16:19:02.839Z,27.17
2018-01-27T16:21:30.440Z,23.03
2018-01-27T16:23:57.972Z,25.53
2018-01-27T16:26:26.269Z,26.00
2018-01-27T16:28:53.962Z,25.77
2018-01-27T16:31:21.506Z,26.50
2018-01-27T16:33:49.082Z,25.93
2018-01-27T16:36:16.666Z,27.07
2018-01-27T16:38:44.197Z,25.40
2018-01-27T16:41:11.720Z,26.07
2018-01-27T16:43:39.249Z,26.97
2018-01-27T16:46:06.745Z,25.87
2018-01-27T16:48:34.230Z,27.93
2018-01-27T16:51:01.797Z,27.10
2018-01-27T16:53:29.282Z,31.20
2018-01-27T16:55:57.070Z,27.27
2018-01-27T16:58:24.604Z,29.57
2018-01-27T17:00:52.143Z,27.83
2018-01-27T17:03:19.603Z,33.60
2018-01-27T17:05:47.090Z,32.87
2018-01-27T17:08:15.359Z,30.53
2018-01-27T17:10:43.228Z,34.13
2018-01-27T17:13:10.726Z,36.37
2018-01-27T17:15:38.214Z,31.50
2018-01-27T17:18:05.887Z,34.03
2018-01-27T17:20:33.379Z,32.77
2018-01-27T17:23:00.890Z,33.27
2018-01-27T17:25:28.404Z,35.27
2018-01-27T17:27:56.675Z,33.80
2018-01-27T17:30:24.318Z,34.37
2018-01-27T17:32:51.860Z,37.60
2018-01-27T17:35:19.579Z,42.17
2018-01-27T17:37:47.940Z,35.73
2018-01-27T17:40:16.304Z,35.10
2018-01-27T17:42:43.791Z,38.10
2018-01-27T17:45:12.062Z,36.17
2018-01-27T17:47:40.341Z,35.20
2018-01-27T17:50:08.286Z,35.60
2018-01-27T17:52:35.794Z,35.83
2018-01-27T17:55:03.303Z,35.27
2018-01-27T17:57:30.818Z,38.37
2018-01-27T17:59:58.365Z,38.00
2018-01-27T18:02:25.937Z,37.60
2018-01-27T18:04:53.452Z,37.83
2018-01-27T18:07:21.746Z,37.67
2018-01-27T18:09:50.010Z,43.13
2018-01-27T18:12:18.315Z,37.57
2018-01-27T18:14:45.883Z,39.97
2018-01-27T18:17:13.388Z,45.27
2018-01-27T18:19:41.668Z,45.10
2018-01-27T18:22:09.422Z,42.23
2018-01-27T18:24:37.720Z,42.90
2018-01-27T18:27:06.168Z,48.30
2018-01-27T18:29:33.686Z,51.70
2018-01-27T18:32:01.307Z,62.77
2018-01-27T18:34:28.802Z,61.97
2018-01-27T18:36:56.297Z,48.00
2018-01-27T18:39:23.778Z,61.03
2018-01-27T18:41:51.304Z,58.70
2018-01-27T18:44:18.787Z,53.10
2018-01-27T18:46:46.278Z,53.13
2018-01-27T18:49:14.534Z,51.93
2018-01-27T18:51:42.036Z,48.67
2018-01-27T18:54:10.278Z,45.67
2018-01-27T18:56:38.549Z,50.20
2018-01-27T18:59:06.170Z,61.70
2018-01-27T19:01:33.750Z,50.60
2018-01-27T19:04:01.314Z,46.33
2018-01-27T19:06:28.882Z,46.53
2018-01-27T19:08:56.422Z,44.13
2018-01-27T19:11:23.920Z,54.67
2018-01-27T19:13:52.216Z,45.37
2018-01-27T19:16:20.560Z,44.80
2018-01-27T19:18:48.063Z,46.33
2018-01-27T19:21:15.642Z,41.87
2018-01-27T19:23:43.159Z,43.27
2018-01-27T19:26:10.688Z,42.50
2018-01-27T19:28:38.214Z,45.27
2018-01-27T19:31:05.746Z,42.60
2018-01-27T19:33:33.245Z,45.13
2018-01-27T19:36:00.872Z,42.33
2018-01-27T19:38:29.351Z,49.07
2018-01-27T19:40:56.914Z,48.57
2018-01-27T19:43:24.481Z,45.50
2018-01-27T19:45:51.982Z,44.70
2018-01-27T19:48:20.084Z,45.03
2018-01-27T19:50:48.545Z,46.03
2018-01-27T19:53:16.148Z,51.07
2018-01-27T19:55:43.734Z,45.37
2018-01-27T19:58:11.304Z,45.17
2018-01-27T20:00:38.813Z,51.60
2018-01-27T20:03:06.323Z,46.07
2018-01-27T20:05:33.827Z,48.60
2018-01-27T20:08:01.477Z,49.03
2018-01-27T20:10:29.034Z,47.87
2018-01-27T20:12:57.301Z,46.80
2018-01-27T20:15:24.824Z,47.63
2018-01-27T20:17:52.322Z,46.90
2018-01-27T20:20:20.627Z,53.93
2018-01-27T20:22:48.114Z,47.60
2018-01-27T20:25:15.614Z,52.80
2018-01-27T20:27:43.136Z,50.83
2018-01-27T20:30:10.713Z,51.67
2018-01-27T20:32:38.252Z,50.77
2018-01-27T20:35:05.812Z,50.40
2018-01-27T20:37:33.382Z,48.80
2018-01-27T20:40:04.429Z,47.83
2018-01-27T20:42:31.934Z,45.23
2018-01-27T20:44:59.564Z,51.80
2018-01-27T20:47:27.067Z,46.23
2018-01-27T20:49:54.562Z,46.13
2018-01-27T20:52:22.248Z,46.07
2018-01-27T20:54:49.738Z,49.37
2018-01-27T20:57:17.339Z,50.20
2018-01-27T20:59:44.900Z,48.40
2018-01-27T21:02:12.407Z,51.20
2018-01-27T21:04:39.970Z,47.20
2018-01-27T21:07:08.223Z,48.83
2018-01-27T21:09:36.526Z,46.37
2018-01-27T21:12:04.799Z,51.03
2018-01-27T21:14:33.091Z,51.57
2018-01-27T21:17:00.672Z,49.63
2018-01-27T21:19:28.230Z,45.53
2018-01-27T21:21:55.792Z,46.63
2018-01-27T21:24:23.294Z,45.50
2018-01-27T21:26:50.851Z,41.23
2018-01-27T21:29:18.437Z,44.93
2018-01-27T21:31:45.970Z,44.43
2018-01-27T21:34:13.535Z,46.17
2018-01-27T21:36:41.935Z,44.20
2018-01-27T21:39:09.498Z,43.27
2018-01-27T21:41:36.999Z,43.47
2018-01-27T21:44:04.482Z,43.77
2018-01-27T21:46:32.002Z,39.00
2018-01-27T21:48:59.558Z,38.40
2018-01-27T21:51:27.210Z,39.47
2018-01-27T21:53:54.730Z,39.10
2018-01-27T21:56:22.994Z,38.23
2018-01-27T21:58:50.729Z,38.20
2018-01-27T22:01:18.330Z,37.87
2018-01-27T22:03:46.616Z,39.17
2018-01-27T22:06:14.304Z,35.30
2018-01-27T22:08:41.814Z,39.80
2018-01-27T22:11:10.162Z,38.43
2018-01-27T22:13:37.958Z,39.83
2018-01-27T22:16:06.267Z,36.20
2018-01-27T22:18:33.978Z,36.93
2018-01-27T22:21:01.610Z,38.63
2018-01-27T22:23:29.106Z,38.00
2018-01-27T22:25:56.633Z,39.23
2018-01-27T22:28:24.155Z,35.37
2018-01-27T22:30:52.425Z,41.33
2018-01-27T22:33:19.931Z,39.77
2018-01-27T22:35:47.426Z,39.53
2018-01-27T22:38:14.914Z,41.33
2018-01-27T22:40:43.183Z,39.17
2018-01-27T22:43:10.816Z,39.20
2018-01-27T22:45:39.111Z,36.80
2018-01-27T22:48:06.680Z,36.13
2018-01-27T22:50:34.192Z,39.83
2018-01-27T22:53:01.704Z,39.73
2018-01-27T22:55:29.259Z,38.23
2018-01-27T22:57:56.786Z,40.30
2018-01-27T23:00:24.337Z,39.20
2018-01-27T23:02:51.835Z,35.33
2018-01-27T23:05:20.126Z,37.43
2018-01-27T23:07:47.642Z,37.20
2018-01-27T23:10:15.126Z,35.83
2018-01-27T23:12:43.398Z,35.00
2018-01-27T23:15:11.653Z,38.60
2018-01-27T23:17:39.169Z,39.97
2018-01-27T23:20:06.700Z,32.83
2018-01-27T23:22:34.963Z,34.13
2018-01-27T23:25:02.455Z,31.73
2018-01-27T23:27:29.958Z,36.43
2018-01-27T23:29:57.466Z,31.90
2018-01-27T23:32:25.097Z,33.13
2018-01-27T23:34:52.620Z,31.63
2018-01-27T23:37:20.114Z,32.20
2018-01-27T23:39:47.630Z,32.93
2018-01-27T23:42:15.153Z,33.47
2018-01-27T23:44:42.683Z,34.17
2018-01-27T23:47:10.209Z,34.40
2018-01-27T23:49:37.691Z,31.30
2018-01-27T23:52:05.190Z,29.33
2018-01-27T23:54:32.706Z,32.53
2018-01-27T23:57:00.213Z,32.13
2018-01-27T23:59:27.709Z,32.47
